Terminal Aerodrome Forecast
Issued by NWS

Home | Current Version | Previous Version | Text Only | Print | Product List | Glossary On
Versions: 1 2 3 4 5 6 7 8 9 10 11 12 13 14 15 16 17 18 19 20 21 22 23 24 25 26 27 28 29 30 31 32 33 34 35
000
FTUS45 KGJT 050528
TAFTEX
TAF
KTEX 050528Z 0506/0606 12005KT P6SM SCT110 OVC200
     FM050900 13005KT P6SM VCSH SCT070 BKN120
     FM051200 VRB03KT P6SM -RA OVC050
     FM051800 22005KT P6SM VCTS SCT050CB OVC080
      TEMPO 0520/0524 VRB15G30KT -TSRA
     FM060000 20005KT P6SM OVC100=

USA.gov is the U.S. government's official web portal to all federal, state and local government web resources and services.